Bernice Lind — WDC8364 — position and weather

sailwx.info

Track history (hours):
 
Tides and Currents Weather Stations Pressure Air Temp Water Temp Dewpoint Dewpoint Depression Visibility Wind Speed Wind Dir Waves Ship Positions

Bernice Lind

Owner: Riverview Equipment Company, LLC, Petaluma, CA. More information available from US FCC via Universal Licensing System and Coast Guard Vessel Documentation Center.

Last reported at 2015-Jul-02 20:11 UTC. Time now 2015-Jul-04 01:37 UTC.
Position N 38°02' W 122°22'.

Length 20 m; draft 3 m.

Type: Towing. MMSI: 367085890.

Date/timePositionNaut miles runAvg speedWind from/ knotsBaromVisibWave heightAir tempDewpointWater temp
2015-Jul-02 20:11N 38°02' W 122°22'5 8.5
2015-Jul-02 19:33N 37°57' W 122°26'8 8.0
2015-Jul-02 18:33N 37°50' W 122°23'3 3.3
2015-Jul-02 17:33N 37°46' W 122°23'7 7.4
2015-Jul-02 16:33N 37°54' W 122°24'7 6.5
2015-Jul-02 15:33N 38°00' W 122°24'9 8.4
2015-Jul-02 14:30N 38°05' W 122°15'2 2.4
2015-Jul-02 13:32N 38°03' W 122°12'8 7.6
2015-Jul-02 12:27N 38°04' W 122°02'6 6.8
2015-Jul-02 11:33N 38°03' W 121°54'3 3.3
2015-Jul-02 10:33N 38°05' W 121°51'0 0.0
2015-Jul-02 09:31N 38°05' W 121°51'0 0.2
2015-Jul-02 08:33N 38°05' W 121°51'1 0.5
2015-Jul-02 07:33N 38°04' W 121°51'0 0.0
2015-Jul-02 06:24N 38°04' W 121°51'1 0.1
2015-Jul-01 23:29N 38°04' W 121°52'2 2.6
2015-Jul-01 22:33N 38°03' W 121°55'0 0.0
2015-Jul-01 21:33N 38°03' W 121°55'0 0.1
2015-Jul-01 20:22N 38°03' W 121°55'0 0.0
2015-Jul-01 19:21N 38°03' W 121°55'0 0.0
2015-Jul-01 18:33N 38°03' W 121°55'1 0.6
2015-Jul-01 17:31N 38°03' W 121°56'4 4.1
2015-Jul-01 16:33N 38°04' W 122°01'4 3.8
2015-Jul-01 15:33N 38°03' W 122°05'4 3.1
2015-Jul-01 14:22N 38°02' W 122°10'3 3.6
2015-Jul-01 13:33N 38°04' W 122°13'3 2.9
2015-Jul-01 12:33N 38°03' W 122°17'3 3.3
2015-Jul-01 11:33N 38°03' W 122°21'5 5.0
2015-Jul-01 10:33N 38°05' W 122°27'6 6.3
2015-Jul-01 09:33N 38°10' W 122°33'3 2.9
2015-Jul-01 08:33N 38°12' W 122°34'2 0.6
2015-Jul-01 04:32N 38°14' W 122°36'4 4.6
2015-Jul-01 03:34N 38°11' W 122°32'6 6.0
2015-Jul-01 02:29N 38°06' W 122°27'5 5.6
2015-Jul-01 01:33N 38°02' W 122°23'7 6.7
2015-Jul-01 00:34N 38°06' W 122°16'3 2.6
2015-Jun-30 23:33N 38°04' W 122°13'12 6.0
2015-Jun-30 21:33N 38°03' W 121°58'5 5.0
2015-Jun-30 20:32N 38°02' W 121°52'3 1.1
2015-Jun-30 18:09N 38°04' W 121°51'6 1.1
2015-Jun-30 12:33N 38°06' W 121°43'0 0.0
2015-Jun-30 10:25N 38°06' W 121°43'4 4.3
2015-Jun-30 09:26N 38°04' W 121°48'4 5.1
2015-Jun-30 08:33N 38°03' W 121°54'8 6.4
2015-Jun-30 07:21N 38°04' W 122°04'5 6.6
2015-Jun-30 06:33N 38°02' W 122°10'7 6.6
2015-Jun-30 05:33N 38°03' W 122°18'6 6.5
2015-Jun-30 04:34N 37°59' W 122°25'6 6.5
2015-Jun-30 03:33N 37°53' W 122°24'4 3.7
2015-Jun-30 02:33N 37°49' W 122°22'4 3.9
2015-Jun-30 01:34N 37°47' W 122°17'3 3.0
2015-Jun-30 00:33N 37°48' W 122°21'7 6.7
2015-Jun-29 23:33N 37°54' W 122°25'19 6.3
2015-Jun-29 20:32N 38°12' W 122°34'3 0.2
2015-Jun-29 07:33N 38°13' W 122°36'1 0.8
2015-Jun-29 06:33N 38°13' W 122°36'3 3.4
2015-Jun-29 05:33N 38°11' W 122°32'4 3.8
2015-Jun-29 04:33N 38°07' W 122°31'5 3.9
2015-Jun-29 03:14N 38°04' W 122°26'2 3.1
2015-Jun-29 02:33N 38°03' W 122°23'4 3.5
2015-Jun-29 01:33N 38°04' W 122°19'5 5.3
2015-Jun-29 00:33N 38°03' W 122°12'14 2.5
2015-Jun-28 19:08N 38°03' W 121°55'0 0.0
2015-Jun-28 18:26N 38°03' W 121°55'0 0.0
2015-Jun-28 17:06N 38°03' W 121°55'0 0.0
2015-Jun-28 16:33N 38°03' W 121°55'0 0.0
2015-Jun-28 15:31N 38°03' W 121°55'0 0.0
2015-Jun-28 14:32N 38°03' W 121°55'0 0.0
2015-Jun-28 13:26N 38°03' W 121°55'8 3.4
2015-Jun-28 11:12N 38°03' W 122°05'3 4.1
2015-Jun-28 10:24N 38°02' W 122°08'4 4.2
2015-Jun-28 09:30N 38°04' W 122°13'4 4.3
2015-Jun-28 08:33N 38°04' W 122°18'5 5.1
2015-Jun-28 07:33N 38°03' W 122°25'5 5.3
2015-Jun-28 06:32N 38°07' W 122°30'4 3.9
2015-Jun-28 05:33N 38°10' W 122°32'3 2.9
2015-Jun-28 04:33N 38°12' W 122°34'2 2.1
2015-Jun-28 03:33N 38°14' W 122°36'1 0.0
2015-Jun-26 09:33N 38°14' W 122°38'5 4.5
2015-Jun-26 08:33N 38°12' W 122°33'5 4.8
2015-Jun-26 07:27N 38°07' W 122°30'5 5.4
2015-Jun-26 06:33N 38°04' W 122°26'5 4.9
2015-Jun-26 05:33N 38°03' W 122°20'4 4.1
2015-Jun-26 04:30N 38°06' W 122°16'4 4.3
2015-Jun-26 03:33N 38°03' W 122°19'7 7.1
2015-Jun-26 02:33N 37°58' W 122°26'7 7.2
2015-Jun-26 01:33N 37°51' W 122°23'5 4.8
2015-Jun-26 00:33N 37°46' W 122°23'3 2.6
2015-Jun-25 23:33N 37°44' W 122°22'0 0.0
2015-Jun-25 22:33N 37°44' W 122°22'0 0.0
2015-Jun-25 21:33N 37°44' W 122°22'0 0.0
2015-Jun-25 20:33N 37°44' W 122°22'2 1.9
2015-Jun-25 19:33N 37°45' W 122°23'2 1.9
2015-Jun-25 18:33N 37°44' W 122°22'0 0.2
2015-Jun-25 17:33N 37°44' W 122°22'0 0.0
2015-Jun-25 16:33N 37°44' W 122°22'0 0.0
2015-Jun-25 15:33N 37°44' W 122°22'0 0.0
2015-Jun-25 14:33N 37°44' W 122°22'0 0.0
2015-Jun-25 13:33N 37°44' W 122°22'3 2.7
2015-Jun-25 12:33N 37°46' W 122°23'0 0.0
2015-Jun-25 11:33N 37°46' W 122°23'0 0.0
2015-Jun-25 10:33N 37°46' W 122°23'0 0.0
2015-Jun-25 09:33N 37°46' W 122°23'0 0.0
2015-Jun-25 08:33N 37°46' W 122°23'0 0.0
2015-Jun-25 07:33N 37°46' W 122°23'0 0.0
2015-Jun-25 06:33N 37°46' W 122°23'0 0.0
2015-Jun-25 05:33N 37°46' W 122°23'0 0.0
2015-Jun-25 04:33N 37°46' W 122°23'3 3.2
2015-Jun-25 03:33N 37°49' W 122°24'4 4.4
2015-Jun-25 02:33N 37°54' W 122°25'5 3.9
2015-Jun-25 01:22N 37°58' W 122°26'3 3.4
2015-Jun-25 00:33N 38°00' W 122°24'3 3.1
2015-Jun-24 23:33N 38°02' W 122°21'4 4.4
2015-Jun-24 22:32N 38°04' W 122°15'6 5.4
2015-Jun-24 21:29N 38°02' W 122°08'  
Track history (hours):
 
Tides and Currents Weather Stations Pressure Air Temp Water Temp Dewpoint Dewpoint Depression Visibility Wind Speed Wind Dir Waves Ship Positions

Bernice Lind

Owner: Riverview Equipment Company, LLC, Petaluma, CA. More information available from US FCC via Universal Licensing System and Coast Guard Vessel Documentation Center.

Last reported at 2015-Jul-02 20:11 UTC. Time now 2015-Jul-04 01:37 UTC.
Position N 38°02' W 122°22'.

Length 20 m; draft 3 m.

Type: Towing. MMSI: 367085890.

Date/timePositionNaut miles runAvg speedWind from/ knotsBaromVisibWave heightAir tempDewpointWater temp
2015-Jul-02 20:11N 38°02' W 122°22'5 8.5
2015-Jul-02 19:33N 37°57' W 122°26'8 8.0
2015-Jul-02 18:33N 37°50' W 122°23'3 3.3
2015-Jul-02 17:33N 37°46' W 122°23'7 7.4
2015-Jul-02 16:33N 37°54' W 122°24'7 6.5
2015-Jul-02 15:33N 38°00' W 122°24'9 8.4
2015-Jul-02 14:30N 38°05' W 122°15'2 2.4
2015-Jul-02 13:32N 38°03' W 122°12'8 7.6
2015-Jul-02 12:27N 38°04' W 122°02'6 6.8
2015-Jul-02 11:33N 38°03' W 121°54'3 3.3
2015-Jul-02 10:33N 38°05' W 121°51'0 0.0
2015-Jul-02 09:31N 38°05' W 121°51'0 0.2
2015-Jul-02 08:33N 38°05' W 121°51'1 0.5
2015-Jul-02 07:33N 38°04' W 121°51'0 0.0
2015-Jul-02 06:24N 38°04' W 121°51'1 0.1
2015-Jul-01 23:29N 38°04' W 121°52'2 2.6
2015-Jul-01 22:33N 38°03' W 121°55'0 0.0
2015-Jul-01 21:33N 38°03' W 121°55'0 0.1
2015-Jul-01 20:22N 38°03' W 121°55'0 0.0
2015-Jul-01 19:21N 38°03' W 121°55'0 0.0
2015-Jul-01 18:33N 38°03' W 121°55'1 0.6
2015-Jul-01 17:31N 38°03' W 121°56'4 4.1
2015-Jul-01 16:33N 38°04' W 122°01'4 3.8
2015-Jul-01 15:33N 38°03' W 122°05'4 3.1
2015-Jul-01 14:22N 38°02' W 122°10'3 3.6
2015-Jul-01 13:33N 38°04' W 122°13'3 2.9
2015-Jul-01 12:33N 38°03' W 122°17'3 3.3
2015-Jul-01 11:33N 38°03' W 122°21'5 5.0
2015-Jul-01 10:33N 38°05' W 122°27'6 6.3
2015-Jul-01 09:33N 38°10' W 122°33'3 2.9
2015-Jul-01 08:33N 38°12' W 122°34'2 0.6
2015-Jul-01 04:32N 38°14' W 122°36'4 4.6
2015-Jul-01 03:34N 38°11' W 122°32'6 6.0
2015-Jul-01 02:29N 38°06' W 122°27'5 5.6
2015-Jul-01 01:33N 38°02' W 122°23'7 6.7
2015-Jul-01 00:34N 38°06' W 122°16'3 2.6
2015-Jun-30 23:33N 38°04' W 122°13'12 6.0
2015-Jun-30 21:33N 38°03' W 121°58'5 5.0
2015-Jun-30 20:32N 38°02' W 121°52'3 1.1
2015-Jun-30 18:09N 38°04' W 121°51'6 1.1
2015-Jun-30 12:33N 38°06' W 121°43'0 0.0
2015-Jun-30 10:25N 38°06' W 121°43'4 4.3
2015-Jun-30 09:26N 38°04' W 121°48'4 5.1
2015-Jun-30 08:33N 38°03' W 121°54'8 6.4
2015-Jun-30 07:21N 38°04' W 122°04'5 6.6
2015-Jun-30 06:33N 38°02' W 122°10'7 6.6
2015-Jun-30 05:33N 38°03' W 122°18'6 6.5
2015-Jun-30 04:34N 37°59' W 122°25'6 6.5
2015-Jun-30 03:33N 37°53' W 122°24'4 3.7
2015-Jun-30 02:33N 37°49' W 122°22'4 3.9
2015-Jun-30 01:34N 37°47' W 122°17'3 3.0
2015-Jun-30 00:33N 37°48' W 122°21'7 6.7
2015-Jun-29 23:33N 37°54' W 122°25'19 6.3
2015-Jun-29 20:32N 38°12' W 122°34'3 0.2
2015-Jun-29 07:33N 38°13' W 122°36'1 0.8
2015-Jun-29 06:33N 38°13' W 122°36'3 3.4
2015-Jun-29 05:33N 38°11' W 122°32'4 3.8
2015-Jun-29 04:33N 38°07' W 122°31'5 3.9
2015-Jun-29 03:14N 38°04' W 122°26'2 3.1
2015-Jun-29 02:33N 38°03' W 122°23'4 3.5
2015-Jun-29 01:33N 38°04' W 122°19'5 5.3
2015-Jun-29 00:33N 38°03' W 122°12'14 2.5
2015-Jun-28 19:08N 38°03' W 121°55'0 0.0
2015-Jun-28 18:26N 38°03' W 121°55'0 0.0
2015-Jun-28 17:06N 38°03' W 121°55'0 0.0
2015-Jun-28 16:33N 38°03' W 121°55'0 0.0
2015-Jun-28 15:31N 38°03' W 121°55'0 0.0
2015-Jun-28 14:32N 38°03' W 121°55'0 0.0
2015-Jun-28 13:26N 38°03' W 121°55'8 3.4
2015-Jun-28 11:12N 38°03' W 122°05'3 4.1
2015-Jun-28 10:24N 38°02' W 122°08'4 4.2
2015-Jun-28 09:30N 38°04' W 122°13'4 4.3
2015-Jun-28 08:33N 38°04' W 122°18'5 5.1
2015-Jun-28 07:33N 38°03' W 122°25'5 5.3
2015-Jun-28 06:32N 38°07' W 122°30'4 3.9
2015-Jun-28 05:33N 38°10' W 122°32'3 2.9
2015-Jun-28 04:33N 38°12' W 122°34'2 2.1
2015-Jun-28 03:33N 38°14' W 122°36'1 0.0
2015-Jun-26 09:33N 38°14' W 122°38'5 4.5
2015-Jun-26 08:33N 38°12' W 122°33'5 4.8
2015-Jun-26 07:27N 38°07' W 122°30'5 5.4
2015-Jun-26 06:33N 38°04' W 122°26'5 4.9
2015-Jun-26 05:33N 38°03' W 122°20'4 4.1
2015-Jun-26 04:30N 38°06' W 122°16'4 4.3
2015-Jun-26 03:33N 38°03' W 122°19'7 7.1
2015-Jun-26 02:33N 37°58' W 122°26'7 7.2
2015-Jun-26 01:33N 37°51' W 122°23'5 4.8
2015-Jun-26 00:33N 37°46' W 122°23'3 2.6
2015-Jun-25 23:33N 37°44' W 122°22'0 0.0
2015-Jun-25 22:33N 37°44' W 122°22'0 0.0
2015-Jun-25 21:33N 37°44' W 122°22'0 0.0
2015-Jun-25 20:33N 37°44' W 122°22'2 1.9
2015-Jun-25 19:33N 37°45' W 122°23'2 1.9
2015-Jun-25 18:33N 37°44' W 122°22'0 0.2
2015-Jun-25 17:33N 37°44' W 122°22'0 0.0
2015-Jun-25 16:33N 37°44' W 122°22'0 0.0
2015-Jun-25 15:33N 37°44' W 122°22'0 0.0
2015-Jun-25 14:33N 37°44' W 122°22'0 0.0
2015-Jun-25 13:33N 37°44' W 122°22'3 2.7
2015-Jun-25 12:33N 37°46' W 122°23'0 0.0
2015-Jun-25 11:33N 37°46' W 122°23'0 0.0
2015-Jun-25 10:33N 37°46' W 122°23'0 0.0
2015-Jun-25 09:33N 37°46' W 122°23'0 0.0
2015-Jun-25 08:33N 37°46' W 122°23'0 0.0
2015-Jun-25 07:33N 37°46' W 122°23'0 0.0
2015-Jun-25 06:33N 37°46' W 122°23'0 0.0
2015-Jun-25 05:33N 37°46' W 122°23'0 0.0
2015-Jun-25 04:33N 37°46' W 122°23'3 3.2
2015-Jun-25 03:33N 37°49' W 122°24'4 4.4
2015-Jun-25 02:33N 37°54' W 122°25'5 3.9
2015-Jun-25 01:22N 37°58' W 122°26'3 3.4
2015-Jun-25 00:33N 38°00' W 122°24'3 3.1
2015-Jun-24 23:33N 38°02' W 122°21'4 4.4
2015-Jun-24 22:32N 38°04' W 122°15'6 5.4
2015-Jun-24 21:29N 38°02' W 122°08'  

Dump ship's entire track history